Time;durP1;ratioP1;P1;durP2;ratioP2;P2;SDS_P1;SDS_P2;PMS_P1;PMS_P2;Temp;Humidity;BMP_temperature;BMP_pressure;BME280_temperature;BME280_humidity;BME280_pressure;Samples;Min_cycle;Max_cycle;Signal;HPM_P1;HPM_P2
2023/01/31 00:01:25;;;;;;;;;;;5.60;92.30;;;5.94;59.08;99609.09;5025524;27;124071;-73
2023/01/31 00:03:53;;;;;;;;;;;5.50;92.30;;;5.94;59.89;99620.88;5016111;28;124541;-73
2023/01/31 00:06:33;;;;;;;;;;;5.60;92.40;;;5.99;59.24;99620.09;5019481;28;114419;-74
2023/01/31 00:09:01;;;;;;;;;;;5.60;92.50;;;6.00;59.64;99616.28;5022694;28;114017;-73
2023/01/31 00:11:29;;;;;;;;;;;5.60;92.50;;;6.00;59.89;99616.28;5015738;27;124068;-73
2023/01/31 00:13:57;;;;;;;;;;;5.60;92.50;;;6.01;59.16;99612.44;5020356;27;122846;-73
2023/01/31 00:16:23;;;;;;;;;;;5.60;92.30;;;5.98;59.02;99608.28;5002256;28;115204;-73
2023/01/31 00:18:50;;;;;;;;;;;5.60;92.30;;;5.96;59.37;99612.38;5024525;27;114484;-73
2023/01/31 00:21:20;;;;;;;;;;;5.60;92.20;;;5.94;58.81;99611.84;4992216;28;123821;-73
2023/01/31 00:23:48;;;;;;;;;;;5.50;92.20;;;5.93;58.94;99608.25;4998730;28;123928;-73
2023/01/31 00:26:24;;;;;;;;;;;5.50;92.20;;;5.92;59.10;99603.84;5028741;28;114417;-73
2023/01/31 00:28:52;;;;;;;;;;;5.50;92.20;;;5.89;59.05;99603.53;5010735;28;113857;-73
2023/01/31 00:31:20;;;;;;;;;;;5.50;92.20;;;5.88;59.62;99607.34;5012431;28;123920;-73
2023/01/31 00:33:47;;;;;;;;;;;5.50;92.10;;;5.86;59.43;99604.06;5001038;28;124246;-73
2023/01/31 00:36:16;;;;;;;;;;;5.50;92.10;;;5.84;58.70;99606.25;5018033;28;114995;-73
2023/01/31 00:38:43;;;;;;;;;;;5.60;92.10;;;5.82;58.56;99602.91;5011181;28;114421;-73
2023/01/31 00:41:10;;;;;;;;;;;5.40;92.00;;;5.80;58.64;99605.09;5020624;28;124953;-73
2023/01/31 00:43:36;;;;;;;;;;;5.40;92.00;;;5.79;58.93;99593.31;5012934;28;123878;-73
2023/01/31 00:46:04;;;;;;;;;;;5.40;92.00;;;5.76;59.29;99605.63;5022233;28;114040;-74
2023/01/31 00:48:31;;;;;;;;;;;5.40;92.00;;;5.73;58.49;99595.19;5014258;27;112887;-73
2023/01/31 00:50:57;;;;;;;;;;;5.30;91.90;;;5.70;58.38;99589.41;5012586;28;123953;-74
2023/01/31 00:53:24;;;;;;;;;;;5.30;91.90;;;5.67;58.83;99589.91;5026828;27;124077;-73
2023/01/31 00:55:52;;;;;;;;;;;5.30;91.90;;;5.64;58.34;99594.00;5013898;27;114517;-73
2023/01/31 00:58:18;;;;;;;;;;;5.30;91.90;;;5.63;59.16;99586.84;4984079;28;113294;-73
2023/01/31 01:00:45;;;;;;;;;;;5.20;91.80;;;5.62;59.20;99582.47;5022928;28;123969;-73
2023/01/31 01:03:11;;;;;;;;;;;5.20;91.90;;;5.59;58.58;99588.47;5010832;28;123473;-73
2023/01/31 01:05:38;;;;;;;;;;;5.20;91.80;;;5.59;58.48;99590.38;5029111;28;115335;-73
2023/01/31 01:08:04;;;;;;;;;;;5.20;91.80;;;5.56;58.64;99582.66;4993596;28;113860;-73
2023/01/31 01:10:31;;;;;;;;;;;5.20;91.80;;;5.52;58.68;99591.41;5023893;28;124111;-73
2023/01/31 01:12:57;;;;;;;;;;;5.10;91.80;;;5.51;58.57;99597.19;5024495;27;123974;-74
2023/01/31 01:15:23;;;;;;;;;;;5.10;91.80;;;5.49;58.88;99583.72;5011996;28;114851;-73
2023/01/31 01:17:50;;;;;;;;;;;5.10;91.80;;;5.47;58.42;99596.03;4993781;28;112199;-74
2023/01/31 01:20:17;;;;;;;;;;;5.10;91.80;;;5.45;58.75;99595.44;5024279;27;124374;-73
2023/01/31 01:22:43;;;;;;;;;;;5.10;91.80;;;5.44;58.97;99580.09;5021855;28;124221;-73
2023/01/31 01:25:09;;;;;;;;;;;5.00;91.70;;;5.43;58.71;99586.69;5032853;27;114312;-73
2023/01/31 01:27:36;;;;;;;;;;;5.00;91.70;;;5.41;58.52;99586.94;5026110;27;114417;-75
2023/01/31 01:30:03;;;;;;;;;;;5.00;91.80;;;5.42;59.00;99595.97;5012130;28;124465;-74
2023/01/31 01:32:30;;;;;;;;;;;5.00;91.80;;;5.43;58.32;99592.16;5010549;28;123324;-74
2023/01/31 01:34:56;;;;;;;;;;;5.00;91.80;;;5.43;58.56;99590.25;5024762;28;114460;-74
2023/01/31 01:37:23;;;;;;;;;;;5.00;91.80;;;5.43;58.85;99598.47;4984171;28;113674;-73
2023/01/31 01:39:50;;;;;;;;;;;5.00;91.80;;;5.45;59.00;99596.28;4988691;28;124322;-74
2023/01/31 01:42:19;;;;;;;;;;;5.00;91.80;;;5.44;58.41;99596.56;5016687;28;124016;-74
2023/01/31 01:44:56;;;;;;;;;;;5.00;91.80;;;5.47;58.43;99598.75;4971921;28;113774;-74
2023/01/31 01:47:41;;;;;;;;;;;5.00;91.80;;;5.46;58.71;99597.13;4975900;28;113165;-73
2023/01/31 01:50:15;;;;;;;;;;;5.00;91.80;;;5.48;58.54;99605.88;4989077;28;123255;-73
2023/01/31 01:53:12;;;;;;;;;;;5.00;91.70;;;5.45;58.47;99607.22;4989817;28;123015;-74
2023/01/31 01:55:41;;;;;;;;;;;5.00;91.80;;;5.41;58.56;99608.84;4990385;28;115613;-73
2023/01/31 01:58:21;;;;;;;;;;;5.00;91.70;;;5.44;58.69;99613.00;4990715;28;113910;-73
2023/01/31 02:00:48;;;;;;;;;;;5.00;91.70;;;5.44;58.97;99613.00;4987749;28;123992;-74
2023/01/31 02:03:17;;;;;;;;;;;5.10;91.80;;;5.46;58.45;99621.78;4989866;28;122747;-74
2023/01/31 02:05:46;;;;;;;;;;;5.00;91.70;;;5.49;59.28;99615.78;5010619;28;114507;-74
2023/01/31 02:08:15;;;;;;;;;;;5.10;91.80;;;5.50;58.80;99618.25;4978658;28;112993;-74
2023/01/31 02:11:02;;;;;;;;;;;5.10;91.80;;;5.52;58.30;99610.59;5013528;28;124330;-75
2023/01/31 02:13:30;;;;;;;;;;;5.10;91.70;;;5.49;58.32;99611.13;4976338;28;124632;-74
2023/01/31 02:15:56;;;;;;;;;;;5.10;91.70;;;5.49;58.55;99607.56;4995299;28;114338;-74
2023/01/31 02:18:24;;;;;;;;;;;5.10;91.70;;;5.47;58.56;99607.00;5004778;28;113939;-74
2023/01/31 02:21:11;;;;;;;;;;;5.10;91.70;;;5.49;58.80;99616.59;4985910;28;124732;-74
2023/01/31 02:24:08;;;;;;;;;;;5.10;91.80;;;5.46;58.61;99616.31;4975704;28;124373;-74
2023/01/31 02:27:12;;;;;;;;;;;5.10;91.80;;;5.47;58.95;99626.16;4989578;28;114894;-74
2023/01/31 02:29:59;;;;;;;;;;;5.10;91.80;;;5.49;58.97;99634.97;4989034;28;114296;-74
2023/01/31 02:32:47;;;;;;;;;;;5.10;91.80;;;5.52;59.08;99642.69;4983801;28;124844;-74
2023/01/31 02:35:54;;;;;;;;;;;5.10;91.90;;;5.57;59.07;99639.97;4992418;28;124088;-75
2023/01/31 02:39:14;;;;;;;;;;;5.10;91.90;;;5.61;58.67;99643.84;4994921;28;115069;-75
2023/01/31 02:41:50;;;;;;;;;;;5.10;91.90;;;5.64;59.01;99648.00;4952773;28;114252;-74
2023/01/31 02:47:10;;;;;;;;;;;5.20;91.90;;;5.66;58.13;99648.56;4997552;28;124630;-74
2023/01/31 02:50:19;;;;;;;;;;;5.20;91.90;;;5.68;59.04;99649.97;5002921;28;115377;-74
2023/01/31 02:53:01;;;;;;;;;;;5.20;91.90;;;5.66;58.30;99659.53;4988311;28;114939;-74
2023/01/31 02:58:36;;;;;;;;;;;5.20;91.80;;;5.58;58.53;99665.47;5008372;28;125089;-74
2023/01/31 03:01:03;;;;;;;;;;;5.20;91.80;;;5.57;58.61;99656.44;5005326;28;114298;-74
2023/01/31 03:03:36;;;;;;;;;;;5.20;91.80;;;5.58;58.35;99658.06;4996517;28;112906;-74
2023/01/31 03:06:21;;;;;;;;;;;5.20;91.80;;;5.57;59.17;99658.34;5012248;28;123739;-74
2023/01/31 03:08:57;;;;;;;;;;;5.10;91.90;;;5.56;58.64;99657.50;5012563;28;123369;-74
2023/01/31 03:11:29;;;;;;;;;;;5.20;91.90;;;5.54;59.35;99651.47;5002059;28;114723;-74
2023/01/31 03:14:26;;;;;;;;;;;5.10;91.80;;;5.52;58.75;99654.47;5010707;28;113689;-74
2023/01/31 03:20:15;;;;;;;;;;;5.10;91.90;;;5.45;59.16;99653.00;4987059;28;124395;-74
2023/01/31 03:22:46;;;;;;;;;;;5.10;92.00;;;5.41;58.73;99657.34;5010955;28;114562;-73
2023/01/31 03:25:15;;;;;;;;;;;5.00;92.00;;;5.38;58.86;99646.91;5010607;28;113721;-73
2023/01/31 03:27:45;;;;;;;;;;;5.00;92.00;;;5.38;59.50;99660.63;5011993;28;124196;-74
2023/01/31 03:30:15;;;;;;;;;;;5.00;92.00;;;5.37;59.04;99656.19;5009936;28;123642;-73
2023/01/31 03:32:49;;;;;;;;;;;5.00;92.10;;;5.37;59.30;99659.75;5010565;28;114657;-73
2023/01/31 03:35:15;;;;;;;;;;;5.00;92.10;;;5.36;59.81;99660.84;5010561;28;113798;-73
2023/01/31 03:37:55;;;;;;;;;;;5.00;92.10;;;5.38;59.91;99663.34;4993954;28;123255;-73
2023/01/31 03:40:32;;;;;;;;;;;5.00;92.20;;;5.39;59.79;99671.31;4994691;28;122968;-73
2023/01/31 03:43:07;;;;;;;;;;;5.00;92.20;;;5.41;60.09;99673.81;5004205;28;115520;-73
2023/01/31 03:45:57;;;;;;;;;;;5.00;92.20;;;5.43;59.20;99672.47;5005108;28;115395;-73
2023/01/31 03:48:28;;;;;;;;;;;5.00;92.20;;;5.43;59.43;99674.38;4999360;28;123298;-73
2023/01/31 03:51:04;;;;;;;;;;;5.00;92.20;;;5.45;59.63;99673.00;5007804;28;123861;-73
2023/01/31 03:53:31;;;;;;;;;;;5.00;92.20;;;5.45;59.29;99675.75;5006955;28;114351;-73
2023/01/31 03:56:02;;;;;;;;;;;5.00;92.20;;;5.50;59.26;99672.25;5010536;28;113940;-73
2023/01/31 03:58:31;;;;;;;;;;;5.10;92.20;;;5.53;59.17;99671.72;5004629;28;124488;-73
2023/01/31 04:01:01;;;;;;;;;;;5.10;92.20;;;5.59;59.10;99675.34;5009498;28;125282;-73
2023/01/31 04:03:32;;;;;;;;;;;5.10;92.20;;;5.65;59.34;99677.06;5009132;28;114359;-73
2023/01/31 04:05:58;;;;;;;;;;;5.20;92.20;;;5.69;59.76;99681.75;5011623;28;113210;-73
2023/01/31 04:08:24;;;;;;;;;;;5.20;92.20;;;5.75;59.22;99685.41;5009950;28;123941;-73
2023/01/31 04:10:51;;;;;;;;;;;5.30;92.20;;;5.79;58.75;99691.19;5008409;28;123964;-73
2023/01/31 04:13:17;;;;;;;;;;;5.30;92.10;;;5.80;58.66;99687.34;5010815;28;114799;-73
2023/01/31 04:15:43;;;;;;;;;;;5.30;92.40;;;5.83;59.09;99693.16;4995284;28;113087;-73
2023/01/31 04:18:10;;;;;;;;;;;5.30;92.40;;;5.86;59.22;99694.56;5000326;28;124744;-73
2023/01/31 04:20:36;;;;;;;;;;;5.40;92.10;;;5.86;58.27;99689.91;5006208;28;123139;-73
2023/01/31 04:23:02;;;;;;;;;;;5.40;92.00;;;5.86;58.39;99697.31;4993584;28;114333;-73
2023/01/31 04:25:29;;;;;;;;;;;5.40;91.90;;;5.86;58.05;99694.56;5003502;28;113814;-73
2023/01/31 04:27:55;;;;;;;;;;;5.40;91.90;;;5.87;58.56;99687.97;5008632;28;123285;-73
2023/01/31 04:30:21;;;;;;;;;;;5.40;91.90;;;5.86;58.19;99686.34;5012090;28;122582;-73
2023/01/31 04:32:48;;;;;;;;;;;5.40;91.80;;;5.83;58.28;99682.19;5008131;28;115414;-73
2023/01/31 04:35:14;;;;;;;;;;;5.40;91.80;;;5.83;58.37;99679.47;5009137;28;114955;-74
2023/01/31 04:37:41;;;;;;;;;;;5.40;91.70;;;5.81;57.85;99684.38;5027731;27;124230;-73
2023/01/31 04:40:12;;;;;;;;;;;5.30;91.70;;;5.80;57.77;99684.59;5024521;27;124183;-74
2023/01/31 04:42:39;;;;;;;;;;;5.30;91.60;;;5.80;57.92;99695.59;4998032;28;114515;-73
2023/01/31 04:45:06;;;;;;;;;;;5.30;91.60;;;5.75;57.79;99688.97;5013641;28;114186;-76
2023/01/31 04:47:32;;;;;;;;;;;5.30;91.60;;;5.72;57.74;99700.47;5039836;27;122965;-77
2023/01/31 04:49:58;;;;;;;;;;;5.30;91.50;;;5.66;58.13;99693.25;5031352;28;123098;-74
2023/01/31 04:52:25;;;;;;;;;;;5.20;91.50;;;5.60;57.95;99698.94;5036647;28;114758;-77
2023/01/31 04:54:51;;;;;;;;;;;5.20;91.50;;;5.58;58.41;99701.13;5030319;27;113267;-73
2023/01/31 04:57:18;;;;;;;;;;;5.60;91.70;;;5.59;58.32;99687.16;5007055;28;124596;-73
2023/01/31 04:59:44;;;;;;;;;;;5.20;91.60;;;5.59;58.27;99678.94;5005194;28;123129;-73
2023/01/31 05:02:14;;;;;;;;;;;5.20;91.60;;;5.57;57.92;99696.72;5021731;28;114404;-74
2023/01/31 05:04:40;;;;;;;;;;;5.10;91.50;;;5.54;58.33;99684.38;5020005;27;113761;-74
2023/01/31 05:07:06;;;;;;;;;;;5.10;91.50;;;5.49;58.42;99679.66;4994773;28;123652;-74
2023/01/31 05:09:32;;;;;;;;;;;5.10;91.50;;;5.46;57.73;99693.88;5029901;27;125292;-74
2023/01/31 05:12:00;;;;;;;;;;;5.10;91.50;;;5.46;57.71;99693.03;5026132;27;114160;-74
2023/01/31 05:14:26;;;;;;;;;;;5.10;91.60;;;5.44;58.91;99686.97;5030135;28;113683;-74
2023/01/31 05:16:53;;;;;;;;;;;5.00;91.50;;;5.43;58.42;99682.59;5029204;28;124040;-74
2023/01/31 05:19:22;;;;;;;;;;;5.00;91.60;;;5.44;58.43;99684.25;5013813;28;123985;-74
2023/01/31 05:21:57;;;;;;;;;;;5.00;91.60;;;5.46;58.65;99685.66;5029304;27;115427;-74
2023/01/31 05:24:29;;;;;;;;;;;5.00;91.60;;;5.48;57.92;99688.97;5008239;28;114156;-74
2023/01/31 05:26:57;;;;;;;;;;;5.00;91.60;;;5.46;58.16;99679.34;5013353;27;125019;-74
2023/01/31 05:29:25;;;;;;;;;;;5.00;91.60;;;5.46;58.37;99687.56;5004677;28;123703;-74
2023/01/31 05:31:53;;;;;;;;;;;5.00;91.60;;;5.43;57.86;99705.34;4993955;28;113820;-74
2023/01/31 05:34:20;;;;;;;;;;;5.00;91.60;;;5.38;58.85;99705.28;5024211;28;113604;-74
2023/01/31 05:36:47;;;;;;;;;;;4.90;91.60;;;5.32;57.70;99709.88;5001081;28;123354;-73
2023/01/31 05:39:13;;;;;;;;;;;4.90;91.60;;;5.26;58.63;99710.06;5024428;28;124012;-73
2023/01/31 05:41:40;;;;;;;;;;;4.80;91.50;;;5.21;57.83;99708.09;5021174;27;114720;-74
2023/01/31 05:44:06;;;;;;;;;;;4.80;91.60;;;5.17;58.40;99709.69;5005514;28;113750;-74
2023/01/31 05:46:32;;;;;;;;;;;4.80;91.60;;;5.12;59.22;99712.34;5010925;27;124793;-74
2023/01/31 05:48:58;;;;;;;;;;;4.70;91.60;;;5.10;59.21;99703.56;5039518;27;123916;-74
2023/01/31 05:51:25;;;;;;;;;;;4.70;91.70;;;5.08;59.21;99697.53;5045973;27;114721;-74
2023/01/31 05:53:51;;;;;;;;;;;4.70;91.70;;;5.05;58.67;99698.84;5029189;27;112854;-74
2023/01/31 05:56:17;;;;;;;;;;;4.70;91.70;;;5.02;59.39;99701.25;5042531;27;124337;-76
2023/01/31 05:58:49;;;;;;;;;;;4.70;91.70;;;5.00;59.36;99709.75;5024620;27;123984;-74
2023/01/31 06:01:23;;;;;;;;;;;4.60;92.00;;;4.99;59.57;99704.50;5021779;28;114647;-73
2023/01/31 06:03:49;;;;;;;;;;;4.60;91.80;;;4.94;59.34;99704.44;4988722;28;112373;-77
2023/01/31 06:06:16;;;;;;;;;;;4.60;91.80;;;4.92;59.18;99704.69;5026084;28;123990;-74
2023/01/31 06:08:43;;;;;;;;;;;4.50;91.90;;;4.88;59.98;99704.38;5023556;27;123972;-76
2023/01/31 06:11:10;;;;;;;;;;;4.50;91.90;;;4.85;59.37;99709.53;5019679;27;115332;-73
2023/01/31 06:13:37;;;;;;;;;;;4.40;91.90;;;4.86;59.26;99717.50;5023184;27;114968;-74
2023/01/31 06:16:04;;;;;;;;;;;4.40;92.00;;;4.84;59.07;99714.19;5043711;27;123937;-75
2023/01/31 06:18:30;;;;;;;;;;;4.50;92.00;;;4.81;59.46;99709.22;5026916;27;123042;-74
2023/01/31 06:20:57;;;;;;;;;;;4.40;92.00;;;4.78;59.51;99714.34;5038998;27;114648;-73
2023/01/31 06:23:23;;;;;;;;;;;4.40;92.00;;;4.75;59.44;99721.16;5038948;27;113893;-73
2023/01/31 06:25:51;;;;;;;;;;;4.40;92.00;;;4.72;59.61;99727.13;5014887;28;124858;-73
2023/01/31 06:28:18;;;;;;;;;;;4.40;92.00;;;4.68;59.98;99717.78;5033899;27;123862;-74
2023/01/31 06:30:44;;;;;;;;;;;4.30;92.10;;;4.64;60.03;99719.34;5005512;27;112407;-73
2023/01/31 06:33:14;;;;;;;;;;;4.30;92.10;;;4.62;59.84;99721.50;5014477;27;112863;-74
2023/01/31 06:35:40;;;;;;;;;;;4.20;92.10;;;4.59;60.08;99722.00;5014222;27;122764;-74
2023/01/31 06:38:07;;;;;;;;;;;4.20;92.10;;;4.56;59.73;99717.84;5048047;27;125105;-74
2023/01/31 06:40:54;;;;;;;;;;;4.10;92.20;;;4.56;60.04;99725.25;5028758;27;113772;-76
2023/01/31 06:43:20;;;;;;;;;;;4.10;92.20;;;4.47;60.12;99730.31;5018435;27;113005;-74
2023/01/31 06:45:48;;;;;;;;;;;4.10;92.20;;;4.43;60.06;99730.00;5026053;28;124586;-74
2023/01/31 06:48:14;;;;;;;;;;;4.00;92.20;;;4.38;60.43;99738.13;5038501;27;124339;-74
2023/01/31 06:50:41;;;;;;;;;;;4.00;92.20;;;4.33;60.08;99735.28;5046809;27;114676;-73
2023/01/31 06:53:08;;;;;;;;;;;4.00;92.30;;;4.31;60.27;99726.50;5023297;27;113238;-73
2023/01/31 06:55:40;;;;;;;;;;;4.00;92.40;;;4.29;60.39;99733.28;5016212;28;124122;-75
2023/01/31 06:58:07;;;;;;;;;;;3.90;92.40;;;4.26;60.90;99740.09;5032560;27;124079;-74
2023/01/31 07:00:34;;;;;;;;;;;3.90;92.40;;;4.21;60.59;99727.16;5025945;27;115470;-74
2023/01/31 07:03:01;;;;;;;;;;;3.80;92.40;;;4.20;61.11;99724.69;5024959;27;115570;-74
2023/01/31 07:05:29;;;;;;;;;;;3.80;92.50;;;4.19;61.02;99726.59;5010260;28;124400;-74
2023/01/31 07:07:56;;;;;;;;;;;3.80;92.60;;;4.19;60.93;99710.19;5035589;28;124493;-75
2023/01/31 07:10:22;;;;;;;;;;;3.80;92.60;;;4.21;61.12;99715.38;5005960;28;114727;-74
2023/01/31 07:12:49;;;;;;;;;;;3.80;92.60;;;4.25;61.28;99722.03;5022882;27;113053;-78
2023/01/31 07:15:15;;;;;;;;;;;3.80;92.60;;;4.25;60.84;99716.56;5029174;28;124120;-76
2023/01/31 07:17:43;;;;;;;;;;;3.90;92.60;;;4.28;61.16;99726.19;5027659;27;124098;-74
2023/01/31 07:20:10;;;;;;;;;;;3.90;92.70;;;4.29;61.02;99714.97;5028433;28;115091;-73
2023/01/31 07:22:36;;;;;;;;;;;3.90;92.70;;;4.29;60.57;99714.97;5030028;27;113284;-73
2023/01/31 07:25:03;;;;;;;;;;;3.90;92.60;;;4.33;60.49;99723.53;5006410;28;123155;-75
2023/01/31 07:27:30;;;;;;;;;;;3.90;92.70;;;4.37;60.71;99721.94;5003214;27;122906;-73
2023/01/31 07:29:56;;;;;;;;;;;3.90;92.60;;;4.40;60.54;99721.44;5006476;28;114355;-73
2023/01/31 07:32:27;;;;;;;;;;;4.00;92.70;;;4.41;60.80;99726.66;5024872;27;113738;-72
2023/01/31 07:34:53;;;;;;;;;;;4.00;92.60;;;4.41;60.25;99731.31;5000696;28;123055;-73
2023/01/31 07:37:20;;;;;;;;;;;4.00;92.60;;;4.46;60.83;99727.81;5025612;28;123753;-73
2023/01/31 07:39:46;;;;;;;;;;;4.00;92.60;;;4.51;60.64;99731.47;5018648;27;114638;-71
2023/01/31 07:42:12;;;;;;;;;;;4.00;92.60;;;4.55;60.71;99726.34;5032027;27;113679;-73
2023/01/31 07:44:39;;;;;;;;;;;4.10;92.60;;;4.56;60.56;99734.28;5029312;27;124182;-73
2023/01/31 07:47:06;;;;;;;;;;;4.10;92.60;;;4.60;60.26;99740.09;5013342;28;122854;-74
2023/01/31 07:49:32;;;;;;;;;;;4.20;92.60;;;4.63;60.13;99734.13;5021429;27;116557;-73
2023/01/31 07:52:00;;;;;;;;;;;4.20;92.60;;;4.68;60.29;99734.19;5002687;28;113687;-73
2023/01/31 07:54:26;;;;;;;;;;;4.20;92.60;;;4.73;60.94;99734.28;4997325;28;123516;-72
2023/01/31 07:56:53;;;;;;;;;;;4.20;92.60;;;4.77;60.34;99729.94;5020115;27;123956;-73
2023/01/31 07:59:19;;;;;;;;;;;4.30;92.60;;;4.83;60.00;99731.66;5011193;28;114422;-73
2023/01/31 08:04:30;;;;;;;;;;;4.40;92.50;;;4.92;59.54;99737.56;5025517;27;124932;-74
2023/01/31 08:06:58;;;;;;;;;;;4.40;92.50;;;4.96;59.38;99746.09;5006146;28;123903;-74
2023/01/31 08:09:24;;;;;;;;;;;4.40;92.50;;;5.00;59.85;99739.03;5024384;28;114155;-74
2023/01/31 08:11:52;;;;;;;;;;;4.50;92.70;;;5.04;59.83;99746.47;5010160;28;113451;-75
2023/01/31 08:14:22;;;;;;;;;;;4.50;92.40;;;5.09;59.53;99743.00;5018664;28;124476;-73
2023/01/31 08:16:48;;;;;;;;;;;4.60;92.40;;;5.13;59.06;99744.16;5001781;28;124027;-74
2023/01/31 08:19:14;;;;;;;;;;;4.60;92.30;;;5.17;59.61;99742.56;5016707;28;114319;-73
2023/01/31 08:21:41;;;;;;;;;;;4.60;92.20;;;5.20;58.88;99739.31;5030425;27;113821;-74
2023/01/31 08:24:07;;;;;;;;;;;4.70;92.20;;;5.24;58.94;99732.25;4998036;28;123285;-74
2023/01/31 08:26:34;;;;;;;;;;;4.70;92.10;;;5.26;58.25;99732.78;5028117;27;123768;-74
2023/01/31 08:29:00;;;;;;;;;;;4.70;92.00;;;5.28;58.74;99738.84;5028498;28;114236;-74
2023/01/31 08:31:27;;;;;;;;;;;4.80;92.00;;;5.31;58.02;99735.59;5024868;27;113736;-73
2023/01/31 08:33:56;;;;;;;;;;;4.80;91.90;;;5.35;58.24;99746.06;5028804;27;124263;-73
2023/01/31 08:36:25;;;;;;;;;;;4.80;91.80;;;5.35;58.68;99746.06;5017264;27;124166;-73
2023/01/31 08:38:52;;;;;;;;;;;4.90;91.70;;;5.38;58.04;99740.09;5015493;27;115412;-74
2023/01/31 08:45:00;;;;;;;;;;;4.90;91.60;;;5.38;57.80;99729.13;5028235;27;124713;-74
2023/01/31 08:47:26;;;;;;;;;;;4.90;91.50;;;5.40;57.76;99726.94;5005384;28;123606;-75
2023/01/31 08:49:52;;;;;;;;;;;5.00;91.40;;;5.41;58.33;99725.88;5034938;27;114337;-75
2023/01/31 08:52:19;;;;;;;;;;;5.00;91.30;;;5.43;57.99;99726.44;5034765;28;113703;-74
2023/01/31 08:54:45;;;;;;;;;;;5.00;91.30;;;5.46;58.28;99725.94;5027496;28;124202;-73
2023/01/31 08:57:11;;;;;;;;;;;5.00;91.30;;;5.48;57.77;99715.53;5029402;28;123857;-73
2023/01/31 08:59:37;;;;;;;;;;;5.00;91.20;;;5.50;57.38;99716.91;5030971;28;114402;-73
2023/01/31 09:02:04;;;;;;;;;;;5.10;91.20;;;5.56;57.64;99709.59;5014187;28;112845;-74
2023/01/31 09:04:30;;;;;;;;;;;5.10;91.20;;;5.62;57.15;99716.78;5011242;28;123954;-72
2023/01/31 09:06:56;;;;;;;;;;;5.20;91.30;;;5.69;57.00;99711.09;5024509;28;124488;-74
2023/01/31 09:09:24;;;;;;;;;;;5.20;91.20;;;5.76;56.96;99709.00;5010235;28;114448;-74
2023/01/31 09:11:51;;;;;;;;;;;5.30;91.20;;;5.83;57.12;99719.75;5006676;28;114076;-73
2023/01/31 09:14:18;;;;;;;;;;;5.30;91.20;;;5.88;57.19;99728.03;5015701;28;124049;-73
2023/01/31 09:16:45;;;;;;;;;;;5.40;91.20;;;5.93;56.70;99726.19;5023383;28;123806;-73
2023/01/31 09:19:11;;;;;;;;;;;5.40;91.10;;;5.98;57.04;99728.16;5029370;27;114632;-73
2023/01/31 09:21:38;;;;;;;;;;;5.50;91.10;;;6.01;57.17;99721.31;5031898;28;113879;-73
2023/01/31 09:24:05;;;;;;;;;;;5.50;91.10;;;6.04;56.67;99705.16;5008310;28;123579;-73
2023/01/31 09:26:32;;;;;;;;;;;5.50;91.00;;;6.09;56.40;99724.41;5013455;28;123972;-74
2023/01/31 09:29:00;;;;;;;;;;;5.60;91.00;;;6.13;56.54;99728.31;5010170;28;115655;-75
2023/01/31 09:31:29;;;;;;;;;;;5.60;90.90;;;6.18;56.16;99711.91;5027839;28;114091;-75
2023/01/31 09:33:55;;;;;;;;;;;5.70;91.00;;;6.23;56.12;99716.59;5027737;28;124961;-75
2023/01/31 09:36:23;;;;;;;;;;;5.70;90.80;;;6.27;56.36;99711.41;4995355;28;122704;-74
2023/01/31 09:38:55;;;;;;;;;;;5.90;90.80;;;6.30;56.00;99698.00;5009452;27;115382;-74
2023/01/31 09:41:27;;;;;;;;;;;5.80;90.70;;;6.32;55.83;99700.50;5008678;28;114420;-74
2023/01/31 09:44:02;;;;;;;;;;;5.80;91.00;;;6.39;56.31;99706.56;5029971;27;124368;-73
2023/01/31 09:46:35;;;;;;;;;;;5.90;90.70;;;6.42;56.02;99703.28;5024960;27;124786;-75
2023/01/31 09:49:04;;;;;;;;;;;5.90;90.50;;;6.44;55.31;99711.28;5004192;28;114189;-74
2023/01/31 09:51:32;;;;;;;;;;;5.90;90.40;;;6.46;55.00;99706.34;5010192;28;114025;-73
2023/01/31 09:53:59;;;;;;;;;;;7.60;91.00;;;6.48;55.48;99705.00;5001014;28;124218;-73
2023/01/31 09:56:39;;;;;;;;;;;6.00;90.30;;;6.53;54.86;99707.78;5014069;28;124543;-73
2023/01/31 09:59:24;;;;;;;;;;;6.00;90.30;;;6.56;55.50;99707.25;5013876;27;114640;-74
2023/01/31 10:02:27;;;;;;;;;;;6.10;90.30;;;6.58;54.83;99710.56;4997730;27;113522;-73
2023/01/31 10:05:18;;;;;;;;;;;6.10;90.20;;;6.60;54.84;99710.28;5019109;28;123965;-73
2023/01/31 10:08:19;;;;;;;;;;;6.10;90.10;;;6.60;54.82;99713.84;5030595;27;123418;-73
2023/01/31 10:10:54;;;;;;;;;;;7.90;90.90;;;6.63;55.54;99723.50;5018820;28;114563;-74
2023/01/31 10:13:28;;;;;;;;;;;6.20;90.20;;;6.66;54.76;99722.13;5011059;27;114375;-73
2023/01/31 10:16:17;;;;;;;;;;;6.20;90.10;;;6.70;55.21;99721.34;5039542;27;124253;-73
2023/01/31 10:18:48;;;;;;;;;;;6.20;90.10;;;6.72;54.61;99723.84;5010925;27;124176;-74
2023/01/31 10:21:20;;;;;;;;;;;6.30;90.10;;;6.76;54.98;99723.03;5001398;28;115427;-73
2023/01/31 10:23:51;;;;;;;;;;;6.30;90.00;;;6.81;54.42;99725.00;5025943;27;114710;-73
2023/01/31 10:26:21;;;;;;;;;;;6.30;90.00;;;6.84;54.58;99713.47;5008253;28;123867;-74
2023/01/31 10:28:58;;;;;;;;;;;6.30;89.80;;;6.89;54.63;99726.41;5008093;27;123816;-74
2023/01/31 10:31:35;;;;;;;;;;;6.40;89.90;;;6.90;53.93;99706.91;5020631;28;114581;-73
2023/01/31 10:34:09;;;;;;;;;;;6.40;89.60;;;6.89;54.17;99710.75;4989427;28;113151;-73
2023/01/31 10:36:54;;;;;;;;;;;6.40;89.30;;;6.90;53.46;99695.09;4992059;28;123959;-73
2023/01/31 10:39:25;;;;;;;;;;;6.40;89.00;;;6.94;53.55;99701.72;5003683;28;122960;-72
2023/01/31 10:42:14;;;;;;;;;;;6.40;88.90;;;6.98;53.35;99694.59;5006955;28;113113;-72
2023/01/31 10:44:40;;;;;;;;;;;6.50;88.60;;;6.96;53.16;99705.88;5026666;27;113677;-74
2023/01/31 10:47:15;;;;;;;;;;;6.50;88.20;;;6.97;53.29;99703.94;5020366;28;124406;-72
2023/01/31 10:49:46;;;;;;;;;;;6.50;88.30;;;6.99;53.19;99705.31;5004841;28;123624;-73
2023/01/31 10:52:43;;;;;;;;;;;6.50;88.40;;;7.04;53.04;99702.63;5022796;28;114371;-74
2023/01/31 10:55:40;;;;;;;;;;;6.50;88.20;;;7.04;52.61;99693.53;5022403;28;114232;-74
2023/01/31 10:58:17;;;;;;;;;;;6.50;87.90;;;7.06;53.02;99714.13;5013015;28;124825;-73
2023/01/31 11:00:46;;;;;;;;;;;6.60;87.90;;;7.06;52.57;99694.91;5008518;28;123734;-72
2023/01/31 11:03:12;;;;;;;;;;;6.60;87.80;;;7.09;52.62;99699.03;5014777;27;114959;-72
2023/01/31 11:05:46;;;;;;;;;;;6.60;87.90;;;7.13;52.62;99691.94;5013765;27;114365;-73
2023/01/31 11:08:34;;;;;;;;;;;7.80;88.90;;;7.18;52.54;99702.94;4989697;28;125626;-72
2023/01/31 11:11:09;;;;;;;;;;;6.60;87.80;;;7.20;52.41;99688.91;5017992;28;123875;-72
2023/01/31 11:13:35;;;;;;;;;;;6.70;87.70;;;7.24;52.98;99682.63;5009516;28;115529;-72
2023/01/31 11:16:03;;;;;;;;;;;6.70;87.70;;;7.32;52.62;99681.28;4993558;28;114701;-73
2023/01/31 11:18:29;;;;;;;;;;;6.80;87.80;;;7.36;52.25;99676.91;4999130;28;123972;-74
2023/01/31 11:20:57;;;;;;;;;;;6.90;87.50;;;7.35;52.37;99679.91;5013587;28;122904;-73
2023/01/31 11:23:25;;;;;;;;;;;6.90;87.10;;;7.33;52.22;99666.44;5011722;28;114442;-73
2023/01/31 11:25:53;;;;;;;;;;;6.90;87.10;;;7.30;52.34;99662.31;5023348;28;113840;-72
2023/01/31 11:28:28;;;;;;;;;;;6.90;87.00;;;7.30;52.26;99666.97;5013113;28;124495;-73
2023/01/31 11:30:54;;;;;;;;;;;6.90;87.20;;;7.30;52.52;99666.97;5017534;28;124259;-73
2023/01/31 11:33:43;;;;;;;;;;;6.90;87.30;;;7.34;52.26;99651.63;5015919;28;114672;-72
2023/01/31 11:36:14;;;;;;;;;;;6.90;87.10;;;7.32;52.55;99645.56;5015324;28;114478;-72
2023/01/31 11:38:41;;;;;;;;;;;6.90;87.10;;;7.34;52.84;99634.31;5011508;28;124806;-73
2023/01/31 11:41:30;;;;;;;;;;;6.90;87.30;;;7.41;52.39;99607.34;5028451;27;123952;-74
2023/01/31 11:44:16;;;;;;;;;;;6.90;87.40;;;7.47;52.56;99617.28;5008272;28;114429;-73
2023/01/31 11:46:53;;;;;;;;;;;7.00;87.60;;;7.50;52.61;99614.81;5029266;27;115240;-73
2023/01/31 11:49:26;;;;;;;;;;;7.00;87.20;;;7.55;52.13;99614.00;4988159;28;124277;-72
2023/01/31 11:51:53;;;;;;;;;;;7.10;87.30;;;7.58;52.42;99607.94;5012032;28;123434;-73
2023/01/31 11:54:24;;;;;;;;;;;7.10;87.30;;;7.64;52.28;99606.84;5020207;28;114162;-72
2023/01/31 11:56:51;;;;;;;;;;;7.10;87.30;;;7.70;52.04;99610.44;5007216;28;113763;-74